Jupiter Spirit — A8ZC2 — position and weather

sailwx.info

Track history (hours):
 
Tides and Currents Weather Stations Pressure Air Temp Water Temp Dewpoint Dewpoint Depression Visibility Wind Speed Wind Dir Waves Ship Positions

Jupiter Spirit

Last reported at 2014-Oct-09 02:25 UTC. Time now 2014-Oct-21 13:39 UTC.
Position N 35°29' E 014°48'.
Warning: this ship's position is 12 days out of date.

Length 183 m; draft 8.6 m.

Type: Cargo ship. MMSI: 636015173.

Date/timePositionNaut miles runAvg speedWind from/ knotsBaromVisibWave heightAir tempDewpointWater temp
2014-Oct-09 02:25N 35°29' E 014°48'1414.1
2014-Oct-09 01:27N 35°33' E 014°32'7913.4
2014-Oct-08 19:33N 36°17' E 013°10'1413.6
2014-Oct-08 18:33N 36°25' E 012°56'1413.6
2014-Oct-08 17:33N 36°33' E 012°43'1413.6
2014-Oct-08 16:33N 36°41' E 012°29'1413.9
2014-Oct-08 15:33N 36°49' E 012°15'10514.3
2014-Oct-08 08:12N 37°33' E 010°16'2815.6
2014-Oct-08 06:25N 37°29' E 009°42'1314.7
2014-Oct-08 05:33N 37°25' E 009°26'1814.4
2014-Oct-08 04:20N 37°20' E 009°05'1214.3
2014-Oct-08 03:32N 37°19' E 008°51'1514.2
2014-Oct-08 02:29N 37°18' E 008°32'1314.0
2014-Oct-08 01:32N 37°17' E 008°16'1413.7
2014-Oct-08 00:33N 37°16' E 007°59'1513.9
2014-Oct-07 23:28N 37°15' E 007°40'17913.9
2014-Oct-07 10:33N 36°60' E 003°56'17313.3
2014-Oct-06 21:33N 36°33' E 000°22'4513.9
2014-Oct-06 18:21N 36°27' W 000°33'1113.6
2014-Oct-06 17:33N 36°26' W 000°47'1414.0
2014-Oct-06 16:31N 36°24' W 001°04'1613.8
2014-Oct-06 15:22N 36°22' W 001°24'1213.9
2014-Oct-06 14:29N 36°21' W 001°39'17514.2
2014-Oct-06 02:09N 36°00' W 005°15'1017.0
2014-Oct-06 01:33N 35°58' W 005°27'  
2014-Oct-02 10:33N 50°24' W 001°14'1916.8
2014-Oct-02 09:25N 50°28' W 000°44'1517.6
2014-Oct-02 08:33N 50°30' W 000°21'1817.7
2014-Oct-02 07:31N 50°34' E 000°07'1717.5
2014-Oct-02 06:33N 50°38' E 000°33'1514.9
2014-Oct-02 05:33N 50°46' E 000°53'1613.5
2014-Oct-02 04:23N 50°54' E 001°15'1113.1
2014-Oct-02 03:33N 51°01' E 001°27'1414.1
2014-Oct-02 02:34N 51°11' E 001°43'1515.4
2014-Oct-02 01:34N 51°25' E 001°55'1615.7
2014-Oct-02 00:34N 51°37' E 002°12'1615.5
2014-Oct-01 23:33N 51°48' E 002°28'12313.7
2014-Oct-01 14:33N 53°25' E 004°34'1313.0
2014-Oct-01 13:33N 53°32' E 004°53'1312.9
2014-Oct-01 12:33N 53°37' E 005°13'1212.1
2014-Oct-01 11:34N 53°41' E 005°32'1212.2
2014-Oct-01 10:33N 53°44' E 005°52'1212.5
2014-Oct-01 09:34N 53°48' E 006°12'4314.0
2014-Oct-01 06:30N 53°59' E 007°22'1414.3
2014-Oct-01 05:33N 54°02' E 007°45'1414.2
2014-Oct-01 04:33N 54°01' E 008°09'1414.4
2014-Oct-01 03:33N 53°58' E 008°33'1212.5
2014-Oct-01 02:34N 53°50' E 008°49'1312.5
2014-Oct-01 01:33N 53°53' E 009°10'1212.3
2014-Oct-01 00:33N 53°44' E 009°25'1514.6
2014-Sep-30 23:33N 53°34' E 009°42'9 9.3
2014-Sep-30 22:33N 53°32' E 009°57'0 0.5
2014-Sep-30 21:31N 53°31' E 009°58'0 0.0
2014-Sep-30 20:33N 53°31' E 009°58'0 0.0
2014-Sep-30 19:33N 53°31' E 009°58'0 0.0
2014-Sep-30 18:33N 53°31' E 009°58'0 0.0
2014-Sep-30 17:33N 53°31' E 009°58'0 0.0
2014-Sep-30 16:33N 53°31' E 009°58'0 0.0
2014-Sep-30 15:33N 53°31' E 009°58'0 0.0
2014-Sep-30 14:33N 53°31' E 009°58'0 0.0
2014-Sep-30 13:31N 53°31' E 009°58'0 0.0
2014-Sep-30 12:33N 53°31' E 009°58'0 0.0
2014-Sep-30 11:31N 53°31' E 009°58'0 0.0
2014-Sep-30 10:24N 53°31' E 009°58'0 0.0
2014-Sep-30 09:31N 53°31' E 009°58'0 0.0
2014-Sep-30 08:31N 53°31' E 009°58'0 0.0
2014-Sep-30 07:33N 53°31' E 009°58'0 0.0
2014-Sep-30 06:33N 53°31' E 009°58'0 0.0
2014-Sep-30 05:30N 53°31' E 009°58'0 0.0
2014-Sep-30 04:31N 53°31' E 009°58'1 1.2
2014-Sep-30 03:34N 53°32' E 009°57'9 8.9
2014-Sep-30 02:33N 53°34' E 009°42'8 8.4
2014-Sep-30 01:33N 53°39' E 009°31'10 9.6
2014-Sep-30 00:33N 53°48' E 009°23'10 9.6
2014-Sep-29 23:31N 53°53' E 009°08'1212.2
2014-Sep-29 22:34N 53°50' E 008°49'1312.6
2014-Sep-29 21:33N 53°58' E 008°32'1414.0
2014-Sep-29 20:33N 53°59' E 008°08'4 4.3
2014-Sep-29 19:33N 53°58' E 008°02'5 5.1
2014-Sep-29 18:33N 53°56' E 007°53'1313.4
2014-Sep-29 17:33N 53°47' E 008°10'1716.8
2014-Sep-29 16:34N 53°36' E 008°31'2 1.9
2014-Sep-29 15:34N 53°34' E 008°33'0 0.2
2014-Sep-29 14:33N 53°35' E 008°34'0 0.0
2014-Sep-29 13:33N 53°35' E 008°34'0 0.0
2014-Sep-29 12:33N 53°35' E 008°34'0 0.0
2014-Sep-29 11:30N 53°34' E 008°34'0 0.0
2014-Sep-29 10:33N 53°35' E 008°34'0 0.0
2014-Sep-29 09:33N 53°35' E 008°34'0 0.0
2014-Sep-29 08:33N 53°34' E 008°34'0 0.0
2014-Sep-29 07:33N 53°34' E 008°34'0 0.0
2014-Sep-29 06:33N 53°35' E 008°34'0 0.0
2014-Sep-29 05:33N 53°35' E 008°34'0 0.0
2014-Sep-29 04:33N 53°35' E 008°34'0 0.0
2014-Sep-29 03:33N 53°34' E 008°34'0 0.0
2014-Sep-29 02:33N 53°34' E 008°34'  
Track history (hours):
 
Tides and Currents Weather Stations Pressure Air Temp Water Temp Dewpoint Dewpoint Depression Visibility Wind Speed Wind Dir Waves Ship Positions

Jupiter Spirit

Last reported at 2014-Oct-09 02:25 UTC. Time now 2014-Oct-21 13:39 UTC.
Position N 35°29' E 014°48'.
Warning: this ship's position is 12 days out of date.

Length 183 m; draft 8.6 m.

Type: Cargo ship. MMSI: 636015173.

Date/timePositionNaut miles runAvg speedWind from/ knotsBaromVisibWave heightAir tempDewpointWater temp
2014-Oct-09 02:25N 35°29' E 014°48'1414.1
2014-Oct-09 01:27N 35°33' E 014°32'7913.4
2014-Oct-08 19:33N 36°17' E 013°10'1413.6
2014-Oct-08 18:33N 36°25' E 012°56'1413.6
2014-Oct-08 17:33N 36°33' E 012°43'1413.6
2014-Oct-08 16:33N 36°41' E 012°29'1413.9
2014-Oct-08 15:33N 36°49' E 012°15'10514.3
2014-Oct-08 08:12N 37°33' E 010°16'2815.6
2014-Oct-08 06:25N 37°29' E 009°42'1314.7
2014-Oct-08 05:33N 37°25' E 009°26'1814.4
2014-Oct-08 04:20N 37°20' E 009°05'1214.3
2014-Oct-08 03:32N 37°19' E 008°51'1514.2
2014-Oct-08 02:29N 37°18' E 008°32'1314.0
2014-Oct-08 01:32N 37°17' E 008°16'1413.7
2014-Oct-08 00:33N 37°16' E 007°59'1513.9
2014-Oct-07 23:28N 37°15' E 007°40'17913.9
2014-Oct-07 10:33N 36°60' E 003°56'17313.3
2014-Oct-06 21:33N 36°33' E 000°22'4513.9
2014-Oct-06 18:21N 36°27' W 000°33'1113.6
2014-Oct-06 17:33N 36°26' W 000°47'1414.0
2014-Oct-06 16:31N 36°24' W 001°04'1613.8
2014-Oct-06 15:22N 36°22' W 001°24'1213.9
2014-Oct-06 14:29N 36°21' W 001°39'17514.2
2014-Oct-06 02:09N 36°00' W 005°15'1017.0
2014-Oct-06 01:33N 35°58' W 005°27'  
2014-Oct-02 10:33N 50°24' W 001°14'1916.8
2014-Oct-02 09:25N 50°28' W 000°44'1517.6
2014-Oct-02 08:33N 50°30' W 000°21'1817.7
2014-Oct-02 07:31N 50°34' E 000°07'1717.5
2014-Oct-02 06:33N 50°38' E 000°33'1514.9
2014-Oct-02 05:33N 50°46' E 000°53'1613.5
2014-Oct-02 04:23N 50°54' E 001°15'1113.1
2014-Oct-02 03:33N 51°01' E 001°27'1414.1
2014-Oct-02 02:34N 51°11' E 001°43'1515.4
2014-Oct-02 01:34N 51°25' E 001°55'1615.7
2014-Oct-02 00:34N 51°37' E 002°12'1615.5
2014-Oct-01 23:33N 51°48' E 002°28'12313.7
2014-Oct-01 14:33N 53°25' E 004°34'1313.0
2014-Oct-01 13:33N 53°32' E 004°53'1312.9
2014-Oct-01 12:33N 53°37' E 005°13'1212.1
2014-Oct-01 11:34N 53°41' E 005°32'1212.2
2014-Oct-01 10:33N 53°44' E 005°52'1212.5
2014-Oct-01 09:34N 53°48' E 006°12'4314.0
2014-Oct-01 06:30N 53°59' E 007°22'1414.3
2014-Oct-01 05:33N 54°02' E 007°45'1414.2
2014-Oct-01 04:33N 54°01' E 008°09'1414.4
2014-Oct-01 03:33N 53°58' E 008°33'1212.5
2014-Oct-01 02:34N 53°50' E 008°49'1312.5
2014-Oct-01 01:33N 53°53' E 009°10'1212.3
2014-Oct-01 00:33N 53°44' E 009°25'1514.6
2014-Sep-30 23:33N 53°34' E 009°42'9 9.3
2014-Sep-30 22:33N 53°32' E 009°57'0 0.5
2014-Sep-30 21:31N 53°31' E 009°58'0 0.0
2014-Sep-30 20:33N 53°31' E 009°58'0 0.0
2014-Sep-30 19:33N 53°31' E 009°58'0 0.0
2014-Sep-30 18:33N 53°31' E 009°58'0 0.0
2014-Sep-30 17:33N 53°31' E 009°58'0 0.0
2014-Sep-30 16:33N 53°31' E 009°58'0 0.0
2014-Sep-30 15:33N 53°31' E 009°58'0 0.0
2014-Sep-30 14:33N 53°31' E 009°58'0 0.0
2014-Sep-30 13:31N 53°31' E 009°58'0 0.0
2014-Sep-30 12:33N 53°31' E 009°58'0 0.0
2014-Sep-30 11:31N 53°31' E 009°58'0 0.0
2014-Sep-30 10:24N 53°31' E 009°58'0 0.0
2014-Sep-30 09:31N 53°31' E 009°58'0 0.0
2014-Sep-30 08:31N 53°31' E 009°58'0 0.0
2014-Sep-30 07:33N 53°31' E 009°58'0 0.0
2014-Sep-30 06:33N 53°31' E 009°58'0 0.0
2014-Sep-30 05:30N 53°31' E 009°58'0 0.0
2014-Sep-30 04:31N 53°31' E 009°58'1 1.2
2014-Sep-30 03:34N 53°32' E 009°57'9 8.9
2014-Sep-30 02:33N 53°34' E 009°42'8 8.4
2014-Sep-30 01:33N 53°39' E 009°31'10 9.6
2014-Sep-30 00:33N 53°48' E 009°23'10 9.6
2014-Sep-29 23:31N 53°53' E 009°08'1212.2
2014-Sep-29 22:34N 53°50' E 008°49'1312.6
2014-Sep-29 21:33N 53°58' E 008°32'1414.0
2014-Sep-29 20:33N 53°59' E 008°08'4 4.3
2014-Sep-29 19:33N 53°58' E 008°02'5 5.1
2014-Sep-29 18:33N 53°56' E 007°53'1313.4
2014-Sep-29 17:33N 53°47' E 008°10'1716.8
2014-Sep-29 16:34N 53°36' E 008°31'2 1.9
2014-Sep-29 15:34N 53°34' E 008°33'0 0.2
2014-Sep-29 14:33N 53°35' E 008°34'0 0.0
2014-Sep-29 13:33N 53°35' E 008°34'0 0.0
2014-Sep-29 12:33N 53°35' E 008°34'0 0.0
2014-Sep-29 11:30N 53°34' E 008°34'0 0.0
2014-Sep-29 10:33N 53°35' E 008°34'0 0.0
2014-Sep-29 09:33N 53°35' E 008°34'0 0.0
2014-Sep-29 08:33N 53°34' E 008°34'0 0.0
2014-Sep-29 07:33N 53°34' E 008°34'0 0.0
2014-Sep-29 06:33N 53°35' E 008°34'0 0.0
2014-Sep-29 05:33N 53°35' E 008°34'0 0.0
2014-Sep-29 04:33N 53°35' E 008°34'0 0.0
2014-Sep-29 03:33N 53°34' E 008°34'0 0.0
2014-Sep-29 02:33N 53°34' E 008°34'  

Dump ship's entire track history